WEATHER DATA

TODAY
Time Temp. Dewp. Hum. Bar.
00:03 8.5 1 59 993
00:14 8.3 1 60 992.8
00:23 8.1 1 61 992.9
00:33 8 0.9 61 992.7
00:43 7.8 0.8 61 992.6
00:54 7.6 0.8 62 992.7
01:03 7.5 0.7 62 992.6
01:13 7.4 0.6 62 992.8
01:24 7.2 0.6 63 993
01:33 7 0.4 63 993.2
01:43 6.9 0.4 63 993.2
01:54 6.7 0.2 63 993.2
02:04 6.5 0.2 64 993.2
02:13 6.3 0 64 993.3
02:23 6.2 -0.1 64 993.3
02:34 6.1 0 65 993.3
02:44 5.9 -0.1 65 993.4
02:53 5.7 -0.3 65 993.5
03:04 5.6 -0.4 65 993.5
03:14 5.4 -0.4 66 993.6
03:23 5.3 -0.5 66 993.6
03:34 5.1 -0.5 67 993.6
03:44 4.9 -0.6 67 993.5
03:54 4.8 -0.7 67 993.5
04:03 4.7 -0.8 67 993.5
04:14 4.7 -0.6 68 993.4
04:24 4.6 -0.7 68 993.3
04:34 4.6 -0.5 69 993.2
04:44 4.6 -0.5 69 993.2
04:54 4.5 -0.6 69 993.2
05:04 4.4 -0.7 69 993.4
05:13 4.4 -0.5 70 993.3
05:24 4.3 -0.3 72 993.3
05:34 4.4 -0.2 72 993.2
05:44 4.4 -0.3 71 993.2
05:54 4.4 -0.2 72 993.2
06:04 4.4 -0.2 72 993.4
06:14 4.3 -0.3 72 993.4
06:24 4.3 -0.3 72 993.4
06:34 4.3 -0.3 72 993.7
06:44 4.3 -0.3 72 993.8
06:54 4.3 -0.3 72 993.9
07:05 4.3 -0.3 72 994.1
07:14 4.4 0 73 994.2
07:24 4.6 0.2 73 994.3
07:34 4.9 0.5 73 994.3
07:44 5.1 0.7 73 994.3
07:54 5.4 1 73 994.4
08:04 5.6 1 72 994.3
08:15 5.8 1.1 72 994.3
08:24 6.2 1.5 72 994.4
08:34 6.5 1.8 72 994.5
08:45 7 2.1 71 994.5
08:55 7.5 2.6 71 994.6
09:04 7.8 2.5 69 994.4
09:14 8 2.7 69 994.5
09:25 8.9 3.3 68 994.6
09:34 9.4 3.6 67 994.7
09:44 9.8 3.8 66 994.7

DAY STATISTIC

2019-04-22
TEMPERATURE
AVERAGE
5.9
HIGH
9.8
09:44
LOW
4.3
05:24
PRESSURE
AVERAGE
993.6
HIGH
994.7
09:34
LOW
992.6
00:43
DEWPOINT
AVERAGE
0.4
HIGH
3.8
09:44
LOW
-0.8
04:03
HUMIDITY
AVERAGE
68
HIGH
73
07:14
LOW
59
00:03
TEMPERATURE (°C)
LOW
4.3
HIGH
9.8
AVERAGE
5.9
PRESSURE (hpa)
LOW
992.6
HIGH
994.7
AVERAGE
993.6
DEVICE